createdAt,value
2018-12-17T00:00:56.347Z,21.57
2018-12-17T00:03:27.158Z,20.40
2018-12-17T00:05:58.052Z,21.10
2018-12-17T00:08:31.996Z,21.33
2018-12-17T00:10:58.554Z,21.30
2018-12-17T00:13:27.450Z,20.97
2018-12-17T00:15:56.298Z,20.30
2018-12-17T00:18:25.278Z,20.30
2018-12-17T00:20:54.173Z,21.20
2018-12-17T00:23:23.002Z,21.53
2018-12-17T00:25:53.806Z,20.83
2018-12-17T00:28:22.780Z,20.50
2018-12-17T00:30:52.387Z,21.30
2018-12-17T00:33:22.564Z,21.70
2018-12-17T00:35:52.430Z,22.58
2018-12-17T00:38:21.301Z,21.53
2018-12-17T00:40:50.245Z,21.30
2018-12-17T00:43:19.087Z,21.37
2018-12-17T00:45:48.127Z,21.87
2018-12-17T00:48:17.115Z,20.83
2018-12-17T00:50:47.083Z,21.43
2018-12-17T00:53:15.945Z,24.33
2018-12-17T00:55:44.876Z,23.37
2018-12-17T00:58:15.297Z,22.30
2018-12-17T01:00:44.413Z,25.43
2018-12-17T01:03:13.247Z,22.17
2018-12-17T01:05:42.187Z,23.80
2018-12-17T01:08:11.039Z,23.53
2018-12-17T01:10:40.031Z,26.50
2018-12-17T01:13:08.871Z,22.27
2018-12-17T01:15:38.075Z,26.90
2018-12-17T01:18:06.907Z,24.37
2018-12-17T01:20:35.747Z,23.63
2018-12-17T01:23:04.635Z,26.07
2018-12-17T01:25:33.599Z,25.07
2018-12-17T01:28:02.491Z,25.10
2018-12-17T01:30:31.630Z,25.60
2018-12-17T01:33:01.548Z,23.67
2018-12-17T01:35:30.560Z,24.50
2018-12-17T01:37:59.410Z,26.53
2018-12-17T01:40:28.310Z,27.00
2018-12-17T01:42:57.144Z,24.90
2018-12-17T01:45:26.066Z,25.87
2018-12-17T01:47:54.898Z,23.50
2018-12-17T01:50:23.732Z,23.83
2018-12-17T01:52:52.640Z,26.23
2018-12-17T01:55:21.485Z,24.63
2018-12-17T01:57:50.475Z,24.00
2018-12-17T02:00:19.501Z,25.97
2018-12-17T02:02:48.399Z,24.40
2018-12-17T02:05:17.387Z,23.20
2018-12-17T02:07:46.297Z,25.20
2018-12-17T02:10:15.222Z,26.57
2018-12-17T02:12:44.048Z,27.47
2018-12-17T02:15:12.995Z,24.77
2018-12-17T02:17:41.837Z,24.67
2018-12-17T02:20:10.671Z,23.83
2018-12-17T02:22:39.641Z,26.07
2018-12-17T02:25:08.575Z,27.20
2018-12-17T02:27:37.504Z,25.30
2018-12-17T02:30:06.910Z,27.70
2018-12-17T02:32:37.843Z,28.40
2018-12-17T02:35:06.834Z,24.63
2018-12-17T02:37:35.752Z,26.63
2018-12-17T02:40:05.638Z,25.40
2018-12-17T02:42:34.577Z,26.42
2018-12-17T02:45:03.520Z,26.47
2018-12-17T02:47:32.451Z,25.63
2018-12-17T02:50:01.423Z,26.77
2018-12-17T02:52:30.261Z,27.20
2018-12-17T02:54:59.172Z,26.03
2018-12-17T02:57:28.083Z,26.27
2018-12-17T02:59:56.919Z,25.30
2018-12-17T03:02:25.851Z,24.33
2018-12-17T03:04:54.763Z,25.73
2018-12-17T03:07:23.654Z,24.70
2018-12-17T03:09:52.594Z,25.80
2018-12-17T03:12:21.534Z,25.35
2018-12-17T03:14:50.425Z,23.70
2018-12-17T03:17:19.430Z,25.63
2018-12-17T03:19:48.376Z,25.57
2018-12-17T03:22:17.327Z,25.80
2018-12-17T03:24:46.172Z,25.53
2018-12-17T03:27:15.446Z,27.10
2018-12-17T03:29:44.411Z,26.13
2018-12-17T03:32:13.271Z,23.13
2018-12-17T03:34:42.192Z,25.27
2018-12-17T03:37:11.052Z,25.27
2018-12-17T03:39:39.894Z,24.67
2018-12-17T03:42:08.910Z,25.17
2018-12-17T03:44:37.906Z,26.33
2018-12-17T03:47:06.748Z,25.47
2018-12-17T03:49:35.606Z,26.60
2018-12-17T03:52:04.520Z,24.60
2018-12-17T03:54:33.523Z,26.07
2018-12-17T03:57:02.534Z,28.50
2018-12-17T03:59:31.441Z,25.90
2018-12-17T04:02:00.336Z,25.97
2018-12-17T04:04:29.253Z,26.90
2018-12-17T04:06:58.088Z,29.80
2018-12-17T04:09:27.001Z,26.10
2018-12-17T04:11:55.878Z,28.23
2018-12-17T04:14:24.986Z,28.43
2018-12-17T04:16:53.925Z,27.63
2018-12-17T04:19:22.842Z,24.77
2018-12-17T04:21:52.992Z,31.27
2018-12-17T04:24:22.062Z,26.70
2018-12-17T04:26:52.199Z,27.47
2018-12-17T04:29:22.094Z,25.33
2018-12-17T04:31:50.912Z,26.83
2018-12-17T04:34:20.847Z,26.40
2018-12-17T04:36:49.824Z,26.73
2018-12-17T04:39:18.705Z,25.07
2018-12-17T04:41:47.630Z,25.87
2018-12-17T04:44:16.698Z,26.87
2018-12-17T04:46:45.537Z,28.10
2018-12-17T04:49:14.410Z,28.17
2018-12-17T04:51:43.558Z,25.93
2018-12-17T04:54:12.419Z,25.63
2018-12-17T04:56:41.292Z,24.90
2018-12-17T04:59:14.494Z,27.10
2018-12-17T05:01:41.009Z,26.60
2018-12-17T05:04:09.888Z,27.80
2018-12-17T05:06:38.785Z,28.70
2018-12-17T05:09:08.535Z,26.80
2018-12-17T05:11:37.387Z,30.00
2018-12-17T05:14:06.248Z,29.63
2018-12-17T05:16:35.123Z,30.30
2018-12-17T05:19:04.419Z,30.60
2018-12-17T05:21:34.207Z,30.80
2018-12-17T05:24:03.069Z,28.80
2018-12-17T05:26:31.954Z,29.80
2018-12-17T05:29:00.820Z,31.80
2018-12-17T05:31:29.765Z,32.47
2018-12-17T05:33:58.694Z,29.33
2018-12-17T05:36:27.551Z,27.40
2018-12-17T05:38:56.496Z,28.40
2018-12-17T05:41:25.370Z,29.07
2018-12-17T05:43:54.266Z,27.90
2018-12-17T05:46:23.124Z,28.53
2018-12-17T05:48:52.038Z,28.90
2018-12-17T05:51:20.936Z,30.90
2018-12-17T05:53:49.865Z,26.33
2018-12-17T05:56:18.741Z,29.30
2018-12-17T05:58:47.647Z,27.53
2018-12-17T06:01:16.627Z,30.37
2018-12-17T06:03:45.535Z,29.93
2018-12-17T06:06:14.484Z,30.47
2018-12-17T06:08:43.387Z,30.97
2018-12-17T06:11:12.231Z,29.87
2018-12-17T06:13:41.185Z,29.80
2018-12-17T06:16:10.083Z,30.40
2018-12-17T06:18:39.775Z,30.40
2018-12-17T06:21:08.711Z,28.80
2018-12-17T06:23:37.634Z,32.67
2018-12-17T06:26:06.815Z,30.00
2018-12-17T06:28:35.679Z,30.13
2018-12-17T06:31:04.563Z,31.00
2018-12-17T06:33:33.656Z,32.83
2018-12-17T06:36:02.455Z,34.10
2018-12-17T06:38:31.316Z,31.40
2018-12-17T06:41:00.591Z,35.23
2018-12-17T06:43:29.442Z,32.90
2018-12-17T06:45:58.297Z,35.80
2018-12-17T06:48:27.162Z,34.20
2018-12-17T06:50:56.038Z,32.77
2018-12-17T06:53:24.928Z,32.50
2018-12-17T06:55:53.830Z,33.63
2018-12-17T06:58:23.118Z,33.23
2018-12-17T07:00:51.995Z,30.73
2018-12-17T07:03:20.869Z,31.67
2018-12-17T07:05:49.765Z,30.60
2018-12-17T07:08:19.081Z,31.60
2018-12-17T07:10:48.255Z,32.17
2018-12-17T07:13:17.154Z,30.33
2018-12-17T07:15:46.011Z,31.40
2018-12-17T07:18:14.993Z,28.70
2018-12-17T07:20:43.859Z,32.47
2018-12-17T07:23:12.726Z,32.77
2018-12-17T07:25:41.588Z,31.30
2018-12-17T07:28:10.502Z,31.85
2018-12-17T07:30:39.455Z,32.00
2018-12-17T07:33:08.755Z,33.87
2018-12-17T07:35:37.673Z,33.17
2018-12-17T07:38:07.698Z,30.87
2018-12-17T07:40:36.598Z,31.17
2018-12-17T07:43:05.452Z,29.47
2018-12-17T07:45:34.303Z,29.77
2018-12-17T07:48:03.274Z,34.33
2018-12-17T07:50:32.136Z,29.50
2018-12-17T07:53:00.958Z,28.43
2018-12-17T07:55:29.826Z,27.73
2018-12-17T07:57:59.730Z,29.93
2018-12-17T08:00:28.661Z,28.67
2018-12-17T08:02:57.524Z,27.80
2018-12-17T08:05:26.372Z,28.50
2018-12-17T08:07:55.312Z,27.50
2018-12-17T08:10:24.158Z,29.07
2018-12-17T08:12:53.033Z,27.97
2018-12-17T08:15:21.856Z,26.87
2018-12-17T08:18:01.865Z,27.10
2018-12-17T08:20:30.772Z,30.07
2018-12-17T08:22:59.631Z,41.50
2018-12-17T08:25:28.515Z,38.17
2018-12-17T08:27:57.345Z,28.35
2018-12-17T08:30:26.203Z,26.50
2018-12-17T08:32:55.142Z,28.50
2018-12-17T08:35:23.981Z,28.10
2018-12-17T08:37:52.900Z,27.27
2018-12-17T08:40:21.767Z,26.13
2018-12-17T08:42:50.615Z,27.03
2018-12-17T08:45:19.451Z,27.70
2018-12-17T08:47:48.363Z,28.47
2018-12-17T08:50:17.231Z,27.40
2018-12-17T08:52:46.551Z,26.67
2018-12-17T08:55:15.434Z,29.57
2018-12-17T08:57:44.343Z,28.00
2018-12-17T09:00:13.428Z,26.93
2018-12-17T09:02:42.377Z,28.20
2018-12-17T09:05:11.318Z,27.70
2018-12-17T09:07:40.226Z,28.67
2018-12-17T09:10:10.164Z,28.87
2018-12-17T09:12:39.114Z,27.90
2018-12-17T09:15:08.058Z,29.33
2018-12-17T09:17:37.860Z,29.87
2018-12-17T09:20:07.925Z,30.53
2018-12-17T09:22:36.798Z,29.23
2018-12-17T09:25:06.517Z,29.57
2018-12-17T09:27:35.412Z,27.83
2018-12-17T09:30:05.609Z,26.97
2018-12-17T09:32:35.242Z,26.60
2018-12-17T09:35:04.200Z,26.90
2018-12-17T09:37:33.049Z,26.73
2018-12-17T09:40:01.930Z,29.30
2018-12-17T09:42:31.790Z,26.27
2018-12-17T09:45:00.694Z,29.37
2018-12-17T09:47:30.324Z,29.47
2018-12-17T09:49:59.210Z,26.83
2018-12-17T09:52:28.042Z,48.93
2018-12-17T09:54:57.091Z,29.03
2018-12-17T09:57:25.955Z,30.77
2018-12-17T09:59:54.869Z,33.30
2018-12-17T10:02:23.688Z,31.17
2018-12-17T10:04:52.515Z,28.83
2018-12-17T10:07:21.355Z,28.60
2018-12-17T10:09:50.207Z,28.27
2018-12-17T10:12:19.190Z,30.23
2018-12-17T10:14:48.126Z,28.50
2018-12-17T10:17:16.956Z,29.90
2018-12-17T10:19:45.785Z,27.97
2018-12-17T10:22:14.696Z,29.43
2018-12-17T10:24:43.539Z,26.63
2018-12-17T10:27:12.396Z,27.77
2018-12-17T10:29:41.364Z,27.20
2018-12-17T10:32:10.194Z,26.53
2018-12-17T10:34:39.025Z,27.00
2018-12-17T10:37:07.896Z,27.90
2018-12-17T10:39:36.733Z,27.70
2018-12-17T10:42:05.692Z,27.10
2018-12-17T10:44:36.531Z,27.03
2018-12-17T10:47:05.415Z,26.03
2018-12-17T10:49:35.451Z,29.50
2018-12-17T10:52:04.319Z,28.43
2018-12-17T10:54:33.185Z,27.30
2018-12-17T10:57:02.009Z,25.73
2018-12-17T10:59:30.854Z,27.10
2018-12-17T11:02:04.938Z,43.83
2018-12-17T11:04:41.742Z,54.60
2018-12-17T11:07:10.566Z,26.97
2018-12-17T11:09:39.682Z,29.60
2018-12-17T11:12:08.545Z,37.27
2018-12-17T11:14:37.462Z,25.07
2018-12-17T11:17:06.364Z,25.68
2018-12-17T11:19:35.352Z,25.90
2018-12-17T11:22:04.229Z,26.23
2018-12-17T11:24:33.118Z,25.63
2018-12-17T11:27:02.013Z,27.63
2018-12-17T11:29:31.421Z,27.20
2018-12-17T11:32:00.352Z,24.90
2018-12-17T11:34:29.228Z,25.27
2018-12-17T11:37:01.200Z,27.70
2018-12-17T11:39:31.838Z,28.53
2018-12-17T11:42:00.749Z,29.70
2018-12-17T11:44:29.607Z,29.87
2018-12-17T11:46:58.495Z,27.67
2018-12-17T11:49:27.403Z,26.70
2018-12-17T11:51:57.212Z,27.57
2018-12-17T11:54:26.073Z,26.77
2018-12-17T11:59:14.115Z,30.10
2018-12-17T12:01:44.934Z,26.03
2018-12-17T12:04:13.857Z,25.67
2018-12-17T12:06:42.675Z,26.80
2018-12-17T12:09:13.519Z,27.77
2018-12-17T12:11:43.421Z,28.20
2018-12-17T12:14:12.287Z,26.67
2018-12-17T12:16:41.253Z,29.13
2018-12-17T12:19:10.082Z,29.30
2018-12-17T12:21:38.995Z,27.90
2018-12-17T12:24:07.882Z,27.87
2018-12-17T12:26:36.711Z,31.17
2018-12-17T12:29:05.558Z,28.53
2018-12-17T12:31:34.462Z,28.90
2018-12-17T12:34:03.490Z,31.87
2018-12-17T12:36:32.390Z,31.27
2018-12-17T12:39:01.398Z,29.73
2018-12-17T12:41:32.366Z,29.40
2018-12-17T12:44:08.596Z,29.37
2018-12-17T12:46:32.581Z,28.67
2018-12-17T12:49:01.467Z,27.90
2018-12-17T12:51:32.831Z,29.40
2018-12-17T12:54:01.271Z,28.70
2018-12-17T12:56:30.361Z,29.20
2018-12-17T12:58:59.262Z,28.33
2018-12-17T13:01:28.121Z,28.90
2018-12-17T13:03:57.034Z,36.67
2018-12-17T13:06:25.935Z,36.17
2018-12-17T13:08:54.833Z,33.93
2018-12-17T13:11:23.695Z,29.80
2018-12-17T13:13:52.610Z,32.67
2018-12-17T13:16:21.528Z,30.23
2018-12-17T13:18:50.385Z,31.00
2018-12-17T13:21:19.315Z,34.92
2018-12-17T13:23:48.191Z,31.80
2018-12-17T13:26:17.065Z,31.40
2018-12-17T13:28:45.911Z,27.70
2018-12-17T13:31:14.918Z,28.10
2018-12-17T13:33:43.898Z,26.90
2018-12-17T13:36:12.794Z,27.40
2018-12-17T13:38:41.712Z,27.10
2018-12-17T13:41:10.598Z,28.57
2018-12-17T13:43:39.462Z,28.40
2018-12-17T13:46:08.310Z,27.40
2018-12-17T13:48:37.178Z,29.43
2018-12-17T13:51:11.420Z,39.07
2018-12-17T13:53:40.259Z,28.30
2018-12-17T13:56:09.114Z,29.00
2018-12-17T13:58:37.979Z,29.93
2018-12-17T14:01:06.934Z,29.03
2018-12-17T14:03:35.824Z,27.90
2018-12-17T14:06:04.813Z,26.90
2018-12-17T14:08:33.689Z,29.43
2018-12-17T14:11:02.614Z,27.90
2018-12-17T14:13:31.559Z,25.43
2018-12-17T14:16:05.711Z,27.80
2018-12-17T14:19:41.441Z,28.43
2018-12-17T14:22:10.281Z,28.40
2018-12-17T14:24:39.129Z,28.10
2018-12-17T14:27:08.067Z,29.53
2018-12-17T14:29:36.917Z,30.63
2018-12-17T14:32:05.831Z,30.72
2018-12-17T14:34:34.679Z,29.57
2018-12-17T14:37:03.615Z,29.20
2018-12-17T14:39:32.475Z,26.73
2018-12-17T14:42:01.345Z,28.70
2018-12-17T14:44:34.640Z,31.50
2018-12-17T14:47:03.752Z,31.60
2018-12-17T14:49:32.655Z,31.70
2018-12-17T14:52:02.647Z,31.37
2018-12-17T14:54:31.495Z,31.00
2018-12-17T14:57:00.330Z,28.70
2018-12-17T14:59:29.243Z,31.07
2018-12-17T15:01:58.099Z,31.20
2018-12-17T15:04:26.990Z,30.03
2018-12-17T15:06:55.831Z,29.97
2018-12-17T15:09:24.695Z,31.93
2018-12-17T15:11:53.590Z,31.10
2018-12-17T15:14:22.441Z,29.40
2018-12-17T15:16:51.357Z,32.60
2018-12-17T15:19:20.191Z,32.93
2018-12-17T15:21:49.038Z,31.67
2018-12-17T15:24:17.914Z,30.87
2018-12-17T15:26:46.826Z,28.42
2018-12-17T15:29:15.667Z,28.97
2018-12-17T15:31:44.559Z,29.83
2018-12-17T15:34:13.502Z,28.50
2018-12-17T15:36:42.332Z,35.60
2018-12-17T15:39:11.207Z,45.97
2018-12-17T15:41:40.059Z,88.30
2018-12-17T15:44:08.917Z,47.47
2018-12-17T15:46:37.751Z,29.73
2018-12-17T15:49:06.883Z,30.67
2018-12-17T15:51:36.404Z,30.88
2018-12-17T15:54:05.465Z,33.07
2018-12-17T15:56:34.291Z,28.93
2018-12-17T15:59:03.171Z,29.57
2018-12-17T16:01:32.102Z,29.77
2018-12-17T16:04:01.079Z,63.90
2018-12-17T16:06:30.005Z,50.43
2018-12-17T16:08:59.026Z,36.07
2018-12-17T16:11:27.982Z,33.63
2018-12-17T16:13:56.911Z,32.10
2018-12-17T16:16:25.862Z,30.80
2018-12-17T16:18:54.768Z,30.10
2018-12-17T16:21:23.616Z,30.73
2018-12-17T16:23:52.466Z,29.80
2018-12-17T16:26:21.349Z,30.73
2018-12-17T16:28:50.249Z,31.63
2018-12-17T16:31:19.119Z,32.77
2018-12-17T16:33:48.061Z,28.93
2018-12-17T16:36:16.909Z,30.20
2018-12-17T16:38:45.773Z,31.37
2018-12-17T16:41:15.139Z,32.95
2018-12-17T16:43:43.987Z,34.13
2018-12-17T16:46:12.853Z,30.67
2018-12-17T16:48:41.783Z,34.77
2018-12-17T16:51:10.813Z,53.47
2018-12-17T16:53:39.707Z,39.07
2018-12-17T16:56:08.603Z,34.33
2018-12-17T16:58:37.639Z,34.50
2018-12-17T17:01:06.610Z,34.30
2018-12-17T17:03:35.431Z,35.30
2018-12-17T17:06:04.371Z,33.10
2018-12-17T17:08:33.291Z,31.77
2018-12-17T17:11:02.299Z,32.97
2018-12-17T17:13:31.280Z,32.60
2018-12-17T17:16:00.610Z,33.77
2018-12-17T17:18:29.538Z,35.50
2018-12-17T17:20:58.366Z,31.47
2018-12-17T17:23:28.362Z,46.67
2018-12-17T17:25:57.218Z,36.43
2018-12-17T17:28:26.132Z,33.40
2018-12-17T17:30:55.026Z,33.40
2018-12-17T17:33:26.042Z,35.33
2018-12-17T17:35:54.981Z,40.50
2018-12-17T17:38:23.833Z,40.27
2018-12-17T17:40:52.655Z,34.77
2018-12-17T17:43:21.648Z,36.10
2018-12-17T17:45:50.522Z,34.40
2018-12-17T17:48:19.403Z,36.50
2018-12-17T17:50:48.431Z,55.90
2018-12-17T17:53:17.255Z,37.07
2018-12-17T17:55:46.095Z,33.57
2018-12-17T17:58:14.933Z,30.60
2018-12-17T18:00:43.771Z,30.37
2018-12-17T18:03:12.647Z,31.23
2018-12-17T18:05:41.503Z,30.20
2018-12-17T18:08:10.425Z,31.77
2018-12-17T18:10:39.323Z,54.80
2018-12-17T18:13:08.350Z,33.10
2018-12-17T18:15:37.219Z,32.87
2018-12-17T18:18:06.151Z,33.60
2018-12-17T18:20:34.998Z,40.80
2018-12-17T18:23:04.084Z,44.53
2018-12-17T18:25:33.512Z,38.00
2018-12-17T18:28:02.596Z,33.07
2018-12-17T18:30:31.469Z,30.37
2018-12-17T18:33:03.326Z,29.50
2018-12-17T18:35:32.320Z,32.53
2018-12-17T18:38:01.408Z,49.10
2018-12-17T18:40:30.258Z,34.37
2018-12-17T18:42:59.897Z,34.67
2018-12-17T18:45:29.014Z,33.87
2018-12-17T18:47:58.193Z,33.40
2018-12-17T18:50:27.193Z,31.93
2018-12-17T18:52:56.135Z,32.13
2018-12-17T18:55:25.159Z,35.17
2018-12-17T18:57:54.155Z,31.20
2018-12-17T19:00:23.199Z,34.10
2018-12-17T19:02:52.325Z,39.80
2018-12-17T19:05:27.944Z,31.53
2018-12-17T19:07:56.906Z,32.93
2018-12-17T19:10:30.267Z,29.57
2018-12-17T19:12:59.323Z,31.97
2018-12-17T19:15:28.706Z,32.27
2018-12-17T19:17:57.680Z,30.40
2018-12-17T19:20:26.878Z,33.00
2018-12-17T19:22:55.807Z,30.63
2018-12-17T19:25:24.846Z,34.07
2018-12-17T19:27:54.522Z,34.47
2018-12-17T19:30:23.556Z,34.33
2018-12-17T19:32:52.394Z,32.20
2018-12-17T19:35:21.430Z,33.40
2018-12-17T19:37:50.552Z,33.13
2018-12-17T19:40:19.482Z,32.20
2018-12-17T19:42:48.350Z,32.80
2018-12-17T19:45:17.284Z,32.93
2018-12-17T19:47:46.350Z,38.60
2018-12-17T19:50:15.349Z,56.13
2018-12-17T19:52:44.320Z,37.00
2018-12-17T19:55:13.416Z,33.30
2018-12-17T19:57:42.523Z,34.37
2018-12-17T20:00:11.477Z,32.47
2018-12-17T20:02:47.038Z,32.57
2018-12-17T20:05:13.368Z,33.30
2018-12-17T20:07:42.347Z,32.77
2018-12-17T20:10:15.626Z,33.50
2018-12-17T20:12:44.595Z,35.30
2018-12-17T20:15:13.545Z,30.87
2018-12-17T20:17:42.378Z,32.30
2018-12-17T20:20:11.328Z,34.27
2018-12-17T20:22:41.217Z,32.20
2018-12-17T20:25:10.072Z,33.90
2018-12-17T20:27:38.999Z,33.33
2018-12-17T20:30:09.635Z,33.87
2018-12-17T20:32:39.015Z,33.53
2018-12-17T20:35:08.664Z,31.53
2018-12-17T20:37:37.588Z,32.80
2018-12-17T20:40:08.227Z,33.50
2018-12-17T20:42:37.186Z,36.55
2018-12-17T20:45:07.919Z,33.57
2018-12-17T20:47:37.914Z,32.27
2018-12-17T20:50:07.596Z,34.03
2018-12-17T20:52:36.504Z,33.20
2018-12-17T20:55:05.618Z,33.47
2018-12-17T20:57:34.530Z,34.50
2018-12-17T21:00:03.948Z,45.87
2018-12-17T21:02:34.761Z,36.97
2018-12-17T21:05:03.966Z,36.63
2018-12-17T21:07:33.203Z,34.43
2018-12-17T21:10:02.046Z,36.90
2018-12-17T21:12:30.935Z,35.63
2018-12-17T21:14:59.824Z,35.43
2018-12-17T21:17:28.922Z,35.93
2018-12-17T21:19:57.773Z,34.73
2018-12-17T21:22:26.692Z,34.00
2018-12-17T21:24:55.639Z,33.80
2018-12-17T21:27:24.837Z,33.03
2018-12-17T21:29:53.660Z,31.13
2018-12-17T21:32:22.616Z,32.73
2018-12-17T21:34:51.523Z,43.77
2018-12-17T21:37:20.702Z,34.77
2018-12-17T21:39:49.574Z,34.00
2018-12-17T21:42:18.470Z,29.97
2018-12-17T21:44:47.418Z,31.50
2018-12-17T21:47:16.436Z,31.40
2018-12-17T21:49:45.331Z,33.43
2018-12-17T21:52:14.196Z,33.47
2018-12-17T21:54:43.266Z,54.03
2018-12-17T21:57:12.133Z,41.67
2018-12-17T21:59:41.079Z,34.07
2018-12-17T22:02:10.011Z,35.90
2018-12-17T22:04:38.937Z,32.20
2018-12-17T22:07:07.848Z,33.80
2018-12-17T22:09:36.786Z,31.70
2018-12-17T22:12:05.787Z,30.97
2018-12-17T22:14:34.644Z,29.43
2018-12-17T22:17:03.857Z,32.50
2018-12-17T22:19:32.767Z,31.90
2018-12-17T22:22:01.728Z,31.87
2018-12-17T22:24:30.642Z,32.93
2018-12-17T22:26:59.476Z,30.87
2018-12-17T22:29:28.434Z,31.00
2018-12-17T22:31:57.330Z,31.15
2018-12-17T22:34:26.234Z,33.10
2018-12-17T22:36:55.142Z,31.93
2018-12-17T22:39:24.082Z,32.27
2018-12-17T22:41:52.937Z,30.40
2018-12-17T22:44:21.777Z,31.70
2018-12-17T22:46:50.700Z,29.97
2018-12-17T22:49:19.675Z,31.90
2018-12-17T22:51:48.588Z,31.37
2018-12-17T22:54:17.475Z,31.27
2018-12-17T22:56:46.408Z,31.85
2018-12-17T22:59:15.230Z,29.23
2018-12-17T23:01:44.162Z,28.57
2018-12-17T23:04:13.030Z,29.90
2018-12-17T23:06:41.846Z,31.40
2018-12-17T23:09:09.736Z,29.50
2018-12-17T23:11:57.354Z,30.40
2018-12-17T23:14:38.565Z,30.23
2018-12-17T23:17:18.904Z,29.93
2018-12-17T23:19:49.743Z,30.47
2018-12-17T23:22:20.995Z,30.17
2018-12-17T23:24:51.993Z,29.97
2018-12-17T23:27:20.981Z,29.27
2018-12-17T23:29:49.859Z,29.27
2018-12-17T23:32:18.787Z,28.90
2018-12-17T23:34:47.679Z,30.60
2018-12-17T23:37:16.946Z,31.70
2018-12-17T23:39:45.787Z,28.27
2018-12-17T23:42:14.672Z,29.70
2018-12-17T23:44:43.562Z,28.50
2018-12-17T23:47:12.482Z,29.50
2018-12-17T23:49:41.311Z,30.80
2018-12-17T23:52:10.254Z,31.27
2018-12-17T23:54:39.235Z,32.03
2018-12-17T23:57:08.058Z,29.37
2018-12-17T23:59:36.923Z,30.40
